Time;durP1;ratioP1;P1;durP2;ratioP2;P2;SDS_P1;SDS_P2;PMS_P1;PMS_P2;Temp;Humidity;BMP_temperature;BMP_pressure;BME280_temperature;BME280_humidity;BME280_pressure;Samples;Min_cycle;Max_cycle;Signal;HPM_P1;HPM_P2
2022/11/20 00:01:45;;;;;;;18.52;7.25;;;;;;;11.67;45.21;101031.56;4986420;28;20031;-61
2022/11/20 00:04:11;;;;;;;16.65;7.25;;;;;;;11.68;44.86;101028.75;4994184;28;20100;-61
2022/11/20 00:06:37;;;;;;;18.55;8.05;;;;;;;11.69;43.90;101024.28;4995644;28;20069;-61
2022/11/20 00:09:02;;;;;;;19.10;7.85;;;;;;;11.70;44.33;101022.44;5000781;28;20027;-61
2022/11/20 00:11:29;;;;;;;16.67;7.95;;;;;;;11.71;44.85;101022.31;4995059;28;20094;-61
2022/11/20 00:13:59;;;;;;;17.73;7.43;;;;;;;11.73;45.04;101028.38;4996346;28;20041;-61
2022/11/20 00:16:25;;;;;;;12.98;6.72;;;;;;;11.73;44.58;101023.03;4994767;28;20507;-61
2022/11/20 00:18:51;;;;;;;16.77;7.53;;;;;;;11.74;45.31;101024.72;4978444;28;20034;-61
2022/11/20 00:21:24;;;;;;;22.33;7.68;;;;;;;11.75;44.57;101022.91;4987434;28;20563;-61
2022/11/20 00:23:51;;;;;;;16.27;7.82;;;;;;;11.75;45.03;101017.53;5003567;28;20023;-61
2022/11/20 00:26:18;;;;;;;14.68;7.10;;;;;;;11.75;44.45;101017.53;4993873;28;20400;-61
2022/11/20 00:28:52;;;;;;;17.38;7.03;;;;;;;11.77;44.93;101015.56;4995551;28;20034;-61
2022/11/20 00:31:18;;;;;;;20.23;8.02;;;;;;;11.76;44.70;101014.69;4979452;28;20034;-61
2022/11/20 00:33:44;;;;;;;14.75;7.20;;;;;;;11.77;44.84;101005.69;4994589;28;20536;-61
2022/11/20 00:36:11;;;;;;;14.13;6.85;;;;;;;11.77;44.46;101005.69;4995674;28;20030;-61
2022/11/20 00:38:37;;;;;;;16.98;8.15;;;;;;;11.78;45.09;101002.00;5004663;28;20017;-61
2022/11/20 00:41:05;;;;;;;19.90;7.82;;;;;;;11.76;45.35;101005.81;4986249;28;20042;-61
2022/11/20 00:43:30;;;;;;;16.95;8.15;;;;;;;11.76;45.18;101009.34;4994354;28;20050;-61
2022/11/20 00:46:07;;;;;;;18.48;7.28;;;;;;;11.76;45.01;100997.75;4979767;28;20077;-61
2022/11/20 00:48:33;;;;;;;15.70;8.43;;;;;;;11.76;45.35;101003.13;4979206;28;20046;-61
2022/11/20 00:50:58;;;;;;;17.33;6.95;;;;;;;11.78;45.54;101001.16;4978484;28;20031;-61
2022/11/20 00:53:24;;;;;;;14.77;7.05;;;;;;;11.77;44.45;101000.31;4993996;28;20035;-61
2022/11/20 00:55:54;;;;;;;16.33;7.32;;;;;;;11.77;44.70;101011.06;4990401;28;20043;-61
2022/11/20 00:58:20;;;;;;;17.92;7.90;;;;;;;11.78;44.35;100998.50;4986470;28;20043;-61
2022/11/20 01:00:45;;;;;;;17.27;6.72;;;;;;;11.78;44.48;101002.00;4969734;28;20057;-61
2022/11/20 01:03:11;;;;;;;22.25;8.32;;;;;;;11.76;45.58;100998.59;4986890;28;20050;-61
2022/11/20 01:05:36;;;;;;;17.35;7.18;;;;;;;11.77;44.94;101000.31;5002572;28;20042;-61
2022/11/20 01:08:01;;;;;;;16.13;7.15;;;;;;;11.75;45.12;100991.56;5002580;28;20035;-61
2022/11/20 01:10:27;;;;;;;24.02;9.15;;;;;;;11.73;45.50;100992.66;4987502;28;20113;-61
2022/11/20 01:13:36;;;;;;;17.20;8.02;;;;;;;11.74;45.17;100995.22;4987374;28;20029;-61
2022/11/20 01:15:37;;;;;;;15.98;7.82;;;;;;;11.73;44.82;100996.19;4986741;28;20034;-61
2022/11/20 01:18:03;;;;;;;13.93;7.13;;;;;;;11.72;44.59;100991.81;4987451;28;20065;-61
2022/11/20 01:20:28;;;;;;;18.90;8.60;;;;;;;11.72;44.71;100985.59;5018261;28;20123;-61
2022/11/20 01:22:53;;;;;;;17.58;7.85;;;;;;;11.73;45.20;100980.09;5001222;28;20039;-61
2022/11/20 01:25:19;;;;;;;17.63;8.20;;;;;;;11.74;44.98;100975.56;4985346;28;20144;-60
2022/11/20 01:27:44;;;;;;;16.80;7.07;;;;;;;11.69;45.44;100965.25;5018824;28;20030;-61
2022/11/20 01:30:10;;;;;;;19.58;7.97;;;;;;;11.73;44.89;100982.75;4986288;28;20054;-61
2022/11/20 01:32:35;;;;;;;14.27;7.22;;;;;;;11.73;45.06;100977.41;5018401;28;20034;-61
2022/11/20 01:35:01;;;;;;;17.80;7.35;;;;;;;11.71;44.85;100971.31;5001884;28;20038;-61
2022/11/20 01:37:26;;;;;;;18.67;7.75;;;;;;;11.71;44.65;100973.16;4986694;28;20122;-61
2022/11/20 01:39:51;;;;;;;15.38;6.38;;;;;;;11.69;44.64;100973.28;5002493;28;20031;-61
2022/11/20 01:45:01;;;;;;;17.20;6.75;;;;;;;11.68;44.99;100974.25;4986281;28;20038;-61
2022/11/20 01:47:41;;;;;;;14.82;6.72;;;;;;;11.65;45.12;100971.81;4986545;28;20047;-60
2022/11/20 01:50:24;;;;;;;17.75;7.82;;;;;;;11.65;45.43;100969.13;4968500;28;20038;-61
2022/11/20 01:53:02;;;;;;;17.03;8.60;;;;;;;11.64;44.77;100972.81;5001793;28;20038;-61
2022/11/20 01:55:33;;;;;;;17.42;8.07;;;;;;;11.64;45.14;100973.66;5018109;28;20035;-61
2022/11/20 01:57:58;;;;;;;17.10;8.02;;;;;;;11.65;45.50;100977.19;5018149;28;20030;-61
2022/11/20 02:00:24;;;;;;;19.27;7.55;;;;;;;11.66;44.70;100977.06;5000065;28;20031;-61
2022/11/20 02:03:02;;;;;;;15.95;8.27;;;;;;;11.66;45.09;100976.22;4985963;28;20039;-61
2022/11/20 02:05:34;;;;;;;21.77;6.57;;;;;;;11.66;45.25;100974.38;5017526;28;20066;-61
2022/11/20 02:08:00;;;;;;;18.73;8.18;;;;;;;11.66;44.69;100970.84;5017718;28;20031;-61
2022/11/20 02:10:26;;;;;;;21.30;8.43;;;;;;;11.67;45.32;100972.53;4985284;28;20428;-60
2022/11/20 02:15:35;;;;;;;15.88;7.35;;;;;;;11.68;44.55;100995.69;5012721;28;20499;-61
2022/11/20 02:18:01;;;;;;;21.20;8.43;;;;;;;11.66;45.33;100993.16;5018212;28;20117;-61
2022/11/20 02:20:26;;;;;;;17.33;7.43;;;;;;;11.64;45.19;100992.44;5000557;28;20031;-61
2022/11/20 02:22:59;;;;;;;18.73;8.43;;;;;;;11.66;45.55;100990.47;5000429;28;20094;-61
2022/11/20 02:25:26;;;;;;;18.38;7.15;;;;;;;11.67;45.55;100983.25;4968960;28;20094;-61
2022/11/20 02:27:51;;;;;;;17.20;8.48;;;;;;;11.70;44.81;100983.03;4985081;28;20026;-61
2022/11/20 02:30:17;;;;;;;15.98;7.85;;;;;;;11.70;45.18;100983.03;5001317;28;20129;-61
2022/11/20 02:32:42;;;;;;;13.38;6.78;;;;;;;11.70;44.88;100972.28;4968635;28;20027;-61
2022/11/20 02:35:20;;;;;;;16.38;7.93;;;;;;;11.72;44.92;100975.72;5017663;28;20035;-61
2022/11/20 02:37:48;;;;;;;16.48;6.25;;;;;;;11.70;45.47;100974.16;4985654;28;20053;-61
2022/11/20 02:40:14;;;;;;;14.23;6.03;;;;;;;11.70;44.79;100980.34;5017049;28;20062;-61
2022/11/20 02:42:39;;;;;;;11.63;6.28;;;;;;;11.70;45.65;100979.53;5015690;28;20485;-61
2022/11/20 02:45:05;;;;;;;13.85;6.43;;;;;;;11.68;45.23;100985.81;4985127;28;20496;-61
2022/11/20 02:47:31;;;;;;;13.52;6.72;;;;;;;11.66;45.11;100976.22;5000796;28;20468;-61
2022/11/20 02:49:57;;;;;;;12.23;5.90;;;;;;;11.63;45.41;100974.66;4985268;28;20074;-60
2022/11/20 02:52:22;;;;;;;13.90;6.03;;;;;;;11.63;44.96;100981.84;4985222;28;20035;-61
2022/11/20 02:54:48;;;;;;;13.13;5.60;;;;;;;11.61;45.01;100981.13;5000192;28;20030;-61
2022/11/20 02:57:13;;;;;;;14.20;5.82;;;;;;;11.58;44.45;100973.34;5016663;28;20063;-61
2022/11/20 02:59:39;;;;;;;11.80;6.53;;;;;;;11.58;45.47;100984.94;4984791;28;20023;-61
2022/11/20 03:02:04;;;;;;;12.88;5.70;;;;;;;11.55;44.62;100970.91;5016521;28;20045;-61
2022/11/20 03:04:30;;;;;;;13.88;6.40;;;;;;;11.54;45.72;100977.25;4985838;28;20043;-61
2022/11/20 03:06:55;;;;;;;14.88;6.90;;;;;;;11.52;45.20;100973.88;4984217;28;20046;-61
2022/11/20 03:09:21;;;;;;;13.32;5.88;;;;;;;11.47;44.64;100971.56;5000516;28;20473;-61
2022/11/20 03:11:46;;;;;;;14.50;6.30;;;;;;;11.48;45.49;100983.13;4986418;28;20026;-60
2022/11/20 03:14:12;;;;;;;10.75;6.18;;;;;;;11.43;45.00;100977.31;4987790;28;20564;-60
2022/11/20 03:16:37;;;;;;;13.95;6.32;;;;;;;11.43;45.44;100980.88;5019890;28;20035;-61
2022/11/20 03:19:02;;;;;;;11.52;5.95;;;;;;;11.40;45.22;100981.13;5003521;28;20035;-60
2022/11/20 03:21:28;;;;;;;11.75;6.07;;;;;;;11.39;44.67;100987.47;5004539;28;20389;-60
2022/11/20 03:23:54;;;;;;;12.18;5.60;;;;;;;11.40;45.07;100986.50;5005092;28;20400;-60
2022/11/20 03:26:21;;;;;;;15.90;6.43;;;;;;;11.39;45.08;100990.13;4989062;28;20038;-60
2022/11/20 03:28:49;;;;;;;14.80;6.00;;;;;;;11.41;45.53;100981.97;5002745;28;20097;-60
2022/11/20 03:31:17;;;;;;;11.02;5.97;;;;;;;11.35;44.85;100978.00;4987790;28;20031;-60
2022/11/20 03:33:43;;;;;;;12.05;5.93;;;;;;;11.37;45.12;100980.53;4986673;28;20027;-60
2022/11/20 03:36:12;;;;;;;14.10;6.03;;;;;;;11.36;44.65;100978.84;5020496;28;20055;-60
2022/11/20 03:38:37;;;;;;;9.88;5.35;;;;;;;11.36;45.27;100968.13;5020013;28;20031;-60
2022/11/20 03:41:08;;;;;;;11.10;5.32;;;;;;;11.34;44.99;100962.88;4986691;28;20093;-60
2022/11/20 03:43:34;;;;;;;15.10;5.93;;;;;;;11.33;44.70;100954.97;5002479;28;20045;-60
2022/11/20 03:45:59;;;;;;;12.90;6.05;;;;;;;11.34;44.94;100957.50;5003226;28;20038;-60
2022/11/20 03:48:25;;;;;;;14.55;6.40;;;;;;;11.36;44.49;100962.75;4986647;28;20047;-60
2022/11/20 03:50:51;;;;;;;11.38;5.78;;;;;;;11.36;44.84;100957.41;4988409;28;20109;-60
2022/11/20 03:53:17;;;;;;;12.63;6.15;;;;;;;11.37;45.10;100961.75;4986296;28;20031;-60
2022/11/20 03:55:42;;;;;;;13.38;6.40;;;;;;;11.35;44.96;100961.03;4986132;28;20126;-60
2022/11/20 03:58:08;;;;;;;12.52;5.97;;;;;;;11.37;45.20;100961.75;5018821;28;20039;-60
2022/11/20 04:00:34;;;;;;;13.82;6.10;;;;;;;11.35;45.30;100964.59;4970529;28;20035;-60
2022/11/20 04:03:00;;;;;;;14.40;6.40;;;;;;;11.37;45.07;100959.94;5003319;28;20041;-60
2022/11/20 04:05:26;;;;;;;17.55;6.78;;;;;;;11.37;45.07;100967.13;4986356;28;20034;-60
2022/11/20 04:07:51;;;;;;;13.65;5.68;;;;;;;11.38;45.02;100960.78;4986327;28;20027;-60
2022/11/20 04:10:17;;;;;;;15.43;6.60;;;;;;;11.36;44.70;100957.41;5018630;28;20035;-60
2022/11/20 04:12:42;;;;;;;14.25;6.38;;;;;;;11.37;45.04;100959.06;5019248;28;20023;-60
2022/11/20 04:15:08;;;;;;;11.13;6.07;;;;;;;11.35;45.13;100950.31;5019603;28;20560;-60
2022/11/20 04:17:33;;;;;;;10.88;5.60;;;;;;;11.37;45.00;100948.34;5002384;28;20034;-60
2022/11/20 04:19:59;;;;;;;14.70;6.25;;;;;;;11.36;45.50;100952.84;4987306;28;20069;-60
2022/11/20 04:22:24;;;;;;;16.48;6.55;;;;;;;11.36;44.90;100939.44;4984971;28;20505;-60
2022/11/20 04:24:50;;;;;;;14.23;6.28;;;;;;;11.34;44.56;100944.09;4986241;28;20067;-60
2022/11/20 04:27:15;;;;;;;11.27;5.38;;;;;;;11.35;44.76;100953.84;5002577;28;20551;-60
2022/11/20 04:29:40;;;;;;;9.77;5.25;;;;;;;11.37;45.42;100949.19;5003599;28;20023;-60
2022/11/20 04:32:06;;;;;;;15.38;6.30;;;;;;;11.38;44.95;100960.78;5002987;28;20035;-60
2022/11/20 04:34:31;;;;;;;14.43;6.07;;;;;;;11.35;45.13;100951.16;4970574;28;20114;-60
2022/11/20 04:36:57;;;;;;;10.18;5.50;;;;;;;11.37;45.19;100948.34;5018607;28;20512;-60
2022/11/20 04:39:22;;;;;;;17.50;6.30;;;;;;;11.38;44.76;100950.06;4986028;28;20080;-60
2022/11/20 04:41:47;;;;;;;15.98;5.85;;;;;;;11.38;44.85;100955.41;5018297;28;20027;-60
2022/11/20 04:44:13;;;;;;;12.85;7.05;;;;;;;11.39;45.04;100949.09;4987092;28;20042;-60
2022/11/20 04:46:40;;;;;;;10.75;5.57;;;;;;;11.40;44.80;100945.41;5001433;28;20058;-60
2022/11/20 04:49:06;;;;;;;15.85;5.85;;;;;;;11.39;45.10;100941.03;5001828;28;20062;-60
2022/11/20 04:51:32;;;;;;;12.40;5.47;;;;;;;11.40;44.83;100940.91;4986110;28;20097;-60
2022/11/20 04:53:57;;;;;;;11.13;6.47;;;;;;;11.40;45.40;100948.09;5017942;28;20385;-60
2022/11/20 04:56:23;;;;;;;14.93;6.30;;;;;;;11.40;45.28;100937.34;5000971;28;20035;-60
2022/11/20 04:58:48;;;;;;;12.85;6.72;;;;;;;11.40;44.68;100942.72;5017713;28;20035;-60
2022/11/20 05:01:16;;;;;;;12.88;7.15;;;;;;;11.39;45.29;100949.09;4984838;28;20039;-60
2022/11/20 05:03:43;;;;;;;12.38;5.72;;;;;;;11.40;44.94;100948.09;5017907;28;20406;-60
2022/11/20 05:06:10;;;;;;;14.45;6.95;;;;;;;11.41;44.92;100952.47;5017508;28;20521;-61
2022/11/20 05:08:35;;;;;;;14.95;6.30;;;;;;;11.39;44.62;100946.41;4985239;28;20034;-60
2022/11/20 05:11:05;;;;;;;13.77;6.38;;;;;;;11.41;45.06;100944.44;4968813;28;20035;-60
2022/11/20 05:13:31;;;;;;;13.70;6.22;;;;;;;11.44;45.20;100933.44;5017261;28;20114;-60
2022/11/20 05:16:04;;;;;;;11.75;6.10;;;;;;;11.46;44.84;100942.19;5001502;28;20037;-60
2022/11/20 05:18:30;;;;;;;12.68;6.45;;;;;;;11.43;44.82;100937.09;4986211;28;20038;-60
2022/11/20 05:20:56;;;;;;;12.77;5.47;;;;;;;11.45;44.92;100937.81;5019276;28;20038;-60
2022/11/20 05:23:21;;;;;;;13.18;6.60;;;;;;;11.43;44.97;100934.41;5001932;28;20035;-60
2022/11/20 05:25:47;;;;;;;15.05;6.32;;;;;;;11.43;45.18;100918.31;4976580;28;20066;-60
2022/11/20 05:28:12;;;;;;;11.38;6.00;;;;;;;11.46;45.34;100916.22;5018298;28;20043;-60
2022/11/20 05:30:38;;;;;;;14.20;6.38;;;;;;;11.46;45.50;100926.09;4986128;28;20482;-60
2022/11/20 05:33:03;;;;;;;15.45;6.93;;;;;;;11.41;44.85;100909.56;5002287;28;20054;-60
2022/11/20 05:35:28;;;;;;;12.73;6.13;;;;;;;11.46;44.98;100915.38;5001551;28;20046;-60
2022/11/20 05:37:54;;;;;;;10.90;5.95;;;;;;;11.45;45.18;100913.66;4985103;28;20102;-60
2022/11/20 05:40:19;;;;;;;14.75;5.88;;;;;;;11.46;45.04;100912.69;4985053;28;20046;-60
2022/11/20 05:42:44;;;;;;;13.18;6.05;;;;;;;11.48;45.90;100914.25;4985710;28;20102;-60
2022/11/20 05:45:10;;;;;;;14.05;6.45;;;;;;;11.50;44.96;100906.91;4985929;28;20031;-60
2022/11/20 05:47:35;;;;;;;15.70;6.38;;;;;;;11.51;45.28;100919.34;5001680;28;20059;-60
2022/11/20 05:50:01;;;;;;;16.90;6.40;;;;;;;11.53;45.19;100927.28;5016939;28;20046;-60
2022/11/20 05:52:29;;;;;;;14.52;6.47;;;;;;;11.52;44.94;100925.59;5001056;28;20045;-60
2022/11/20 05:54:55;;;;;;;18.42;7.45;;;;;;;11.50;45.53;100917.66;5000525;28;20030;-60
2022/11/20 05:57:21;;;;;;;15.90;6.78;;;;;;;11.54;45.63;100926.28;4984479;28;20370;-60
2022/11/20 05:59:46;;;;;;;14.35;6.57;;;;;;;11.55;45.41;100936.91;5001752;28;20082;-60
2022/11/20 06:02:12;;;;;;;14.82;6.45;;;;;;;11.54;45.26;100923.59;4986046;28;20046;-60
2022/11/20 06:04:37;;;;;;;16.30;7.30;;;;;;;11.57;45.02;100934.94;5001620;28;20045;-61
2022/11/20 06:07:02;;;;;;;13.52;6.22;;;;;;;11.56;44.86;100922.50;4985502;28;20535;-60
2022/11/20 06:09:28;;;;;;;17.85;7.55;;;;;;;11.58;44.87;100931.28;4977258;28;20042;-60
2022/11/20 06:11:53;;;;;;;19.15;7.78;;;;;;;11.61;45.31;100940.88;5000493;28;20442;-60
2022/11/20 06:14:18;;;;;;;19.30;6.47;;;;;;;11.59;45.87;100930.28;4968317;28;20101;-60
2022/11/20 06:16:44;;;;;;;21.00;7.63;;;;;;;11.60;45.67;100931.13;5017639;28;20031;-60
2022/11/20 06:19:09;;;;;;;16.33;6.97;;;;;;;11.63;45.67;100938.91;4985638;28;20046;-60
2022/11/20 06:21:35;;;;;;;21.60;7.75;;;;;;;11.62;45.85;100943.41;5000216;28;20054;-60
2022/11/20 06:24:00;;;;;;;15.90;7.47;;;;;;;11.64;45.65;100936.09;5001219;28;20066;-60
2022/11/20 06:26:27;;;;;;;17.17;7.57;;;;;;;11.66;45.80;100938.66;5016459;28;20467;-60
2022/11/20 06:28:53;;;;;;;16.60;7.75;;;;;;;11.66;45.26;100944.00;4968383;28;20408;-60
2022/11/20 06:31:20;;;;;;;26.77;7.90;;;;;;;11.66;45.71;100949.38;4984685;28;20031;-60
2022/11/20 06:33:46;;;;;;;25.95;8.13;;;;;;;11.66;45.45;100944.00;4985400;28;20397;-60
2022/11/20 06:36:13;;;;;;;19.30;7.45;;;;;;;11.67;45.59;100954.59;4984034;28;20033;-60
2022/11/20 06:38:39;;;;;;;27.52;8.30;;;;;;;11.66;45.17;100952.06;4985396;28;20031;-60
2022/11/20 06:41:16;;;;;;;23.48;9.13;;;;;;;11.69;45.41;100951.84;4984584;28;20030;-60
2022/11/20 06:43:42;;;;;;;19.17;7.95;;;;;;;11.69;45.76;100943.78;4985045;28;20059;-60
2022/11/20 06:46:10;;;;;;;20.40;8.85;;;;;;;11.67;45.47;100941.19;5016480;28;20122;-60
2022/11/20 06:48:35;;;;;;;29.35;9.63;;;;;;;11.68;45.91;100944.72;5003847;28;20053;-60
2022/11/20 06:51:03;;;;;;;21.42;9.07;;;;;;;11.68;45.61;100942.03;4990201;28;20034;-60
2022/11/20 06:53:28;;;;;;;24.77;8.68;;;;;;;11.69;46.47;100946.47;4972207;28;20042;-60
2022/11/20 06:55:56;;;;;;;30.35;9.27;;;;;;;11.67;46.21;100940.31;5021039;28;20035;-60
2022/11/20 06:58:21;;;;;;;23.98;8.70;;;;;;;11.69;46.08;100943.78;4989332;28;20031;-60
2022/11/20 07:00:46;;;;;;;24.45;9.25;;;;;;;11.71;46.02;100933.75;5020820;28;20047;-60
2022/11/20 07:03:12;;;;;;;28.08;9.10;;;;;;;11.73;45.93;100939.84;4988453;28;20046;-60
2022/11/20 07:05:38;;;;;;;23.13;9.70;;;;;;;11.73;46.11;100941.66;4988644;28;20566;-60
2022/11/20 07:08:04;;;;;;;29.65;9.25;;;;;;;11.71;45.74;100935.59;4987911;28;20034;-60
2022/11/20 07:10:30;;;;;;;21.08;8.55;;;;;;;11.72;46.14;100935.47;5003681;28;20062;-60
2022/11/20 07:12:55;;;;;;;23.23;8.98;;;;;;;11.72;45.89;100930.09;5002186;28;20031;-60
2022/11/20 07:15:22;;;;;;;25.20;8.70;;;;;;;11.73;46.25;100934.47;5007477;28;20022;-60
2022/11/20 07:17:47;;;;;;;20.67;9.23;;;;;;;11.77;46.21;100938.59;5007414;28;20027;-60
2022/11/20 07:20:13;;;;;;;23.95;8.57;;;;;;;11.75;45.96;100932.53;5007544;28;20399;-60
2022/11/20 07:22:39;;;;;;;19.63;8.32;;;;;;;11.74;46.28;100938.84;4990249;28;20054;-60
2022/11/20 07:25:05;;;;;;;22.02;9.02;;;;;;;11.73;46.05;100926.41;5007949;28;20125;-60
2022/11/20 07:27:30;;;;;;;19.95;8.77;;;;;;;11.76;46.18;100934.19;4990106;28;20096;-60
2022/11/20 07:29:56;;;;;;;21.17;7.72;;;;;;;11.79;46.06;100927.72;5007330;28;20030;-60
2022/11/20 07:32:21;;;;;;;24.85;9.48;;;;;;;11.76;46.57;100931.50;4990532;28;20034;-60
2022/11/20 07:34:47;;;;;;;22.15;8.45;;;;;;;11.72;46.58;100930.09;5005920;28;20046;-60
2022/11/20 07:37:12;;;;;;;21.10;7.82;;;;;;;11.71;46.23;100925.72;4990647;28;20046;-60
2022/11/20 07:39:38;;;;;;;21.23;7.45;;;;;;;11.72;46.09;100926.56;4990243;28;20046;-60
2022/11/20 07:42:03;;;;;;;21.50;8.52;;;;;;;11.71;46.46;100924.84;5006525;28;20026;-60
2022/11/20 07:44:29;;;;;;;22.30;7.68;;;;;;;11.75;46.58;100931.66;5004572;28;20039;-60
2022/11/20 07:46:54;;;;;;;14.05;7.03;;;;;;;11.76;46.04;100922.59;5004815;28;20042;-60
2022/11/20 07:49:19;;;;;;;24.58;8.18;;;;;;;11.79;46.11;100928.56;4989246;28;20528;-60
2022/11/20 07:51:45;;;;;;;18.05;7.47;;;;;;;11.79;46.52;100928.56;5005781;28;20030;-60
2022/11/20 07:54:10;;;;;;;23.60;8.75;;;;;;;11.83;46.47;100935.38;5005981;28;20472;-60
2022/11/20 07:56:36;;;;;;;24.73;6.95;;;;;;;11.86;46.02;100934.25;5005490;28;20027;-60
2022/11/20 07:59:01;;;;;;;19.23;7.55;;;;;;;11.87;46.61;100935.94;5004299;28;20049;-60
2022/11/20 08:01:26;;;;;;;17.45;6.75;;;;;;;11.89;45.85;100925.94;5004986;28;20473;-60
2022/11/20 08:03:52;;;;;;;23.52;8.43;;;;;;;11.93;46.42;100932.72;5005963;28;20534;-60
2022/11/20 08:06:19;;;;;;;19.52;7.63;;;;;;;11.94;46.09;100935.28;5006895;28;20131;-60
2022/11/20 08:08:44;;;;;;;17.92;8.25;;;;;;;11.98;46.12;100939.38;4989362;28;20034;-60
2022/11/20 08:14:12;;;;;;;24.92;8.30;;;;;;;12.06;46.63;100936.84;5004536;28;20038;-60
2022/11/20 08:16:48;;;;;;;17.65;7.85;;;;;;;12.11;46.56;100925.72;5003938;28;20034;-60
2022/11/20 08:19:15;;;;;;;20.88;7.97;;;;;;;12.16;46.37;100924.34;4988201;28;20034;-60
2022/11/20 08:21:41;;;;;;;23.10;10.02;;;;;;;12.23;46.00;100922.78;5004131;28;20031;-60
2022/11/20 08:24:07;;;;;;;23.40;9.55;;;;;;;12.31;45.93;100915.88;4985069;28;20031;-60
2022/11/20 08:26:33;;;;;;;26.25;9.07;;;;;;;12.35;46.35;100903.88;4969221;28;20033;-60
2022/11/20 08:28:59;;;;;;;21.05;8.88;;;;;;;12.41;45.98;100914.06;4968676;28;20039;-60
2022/11/20 08:31:25;;;;;;;20.73;7.88;;;;;;;12.42;46.08;100930.06;4984331;28;20035;-60
2022/11/20 08:33:51;;;;;;;20.92;7.82;;;;;;;12.41;45.92;100935.56;4985428;28;20038;-61
2022/11/20 08:36:17;;;;;;;13.60;6.82;;;;;;;12.42;45.69;100926.50;4979575;28;20050;-60
2022/11/20 08:38:47;;;;;;;14.57;7.53;;;;;;;12.42;45.84;100911.25;4993159;28;20034;-60
2022/11/20 08:41:25;;;;;;;19.63;9.05;;;;;;;12.46;46.19;100901.06;4992349;28;20031;-61
2022/11/20 08:43:59;;;;;;;19.58;7.60;;;;;;;12.48;46.05;100910.66;4991905;28;20421;-60
2022/11/20 08:46:25;;;;;;;17.52;7.93;;;;;;;12.54;46.23;100906.56;4976695;28;20070;-60
2022/11/20 08:48:51;;;;;;;19.95;8.23;;;;;;;12.59;45.64;100913.22;4975422;28;20043;-61
2022/11/20 08:51:17;;;;;;;18.67;7.85;;;;;;;12.63;45.49;100908.44;4975601;28;20033;-61
2022/11/20 08:53:42;;;;;;;21.42;8.82;;;;;;;12.68;46.55;100917.78;4976778;28;20049;-60
2022/11/20 08:56:10;;;;;;;29.65;9.43;;;;;;;12.66;46.31;100903.63;4977132;28;20042;-62
2022/11/20 08:58:35;;;;;;;18.58;7.47;;;;;;;12.66;45.74;100913.53;4960507;28;20035;-61
2022/11/20 09:01:01;;;;;;;17.83;8.18;;;;;;;12.67;45.74;100907.19;4960743;28;20042;-61
2022/11/20 09:03:27;;;;;;;24.13;7.90;;;;;;;12.71;46.46;100920.19;4976318;28;20081;-60
2022/11/20 09:06:04;;;;;;;19.95;8.65;;;;;;;12.74;45.70;100916.34;4975884;28;20050;-60
2022/11/20 09:08:30;;;;;;;16.40;7.18;;;;;;;12.79;45.93;100914.09;4959723;28;20520;-60
2022/11/20 09:10:57;;;;;;;17.17;6.90;;;;;;;12.81;45.65;100906.75;4962091;28;20042;-60
2022/11/20 09:13:23;;;;;;;25.83;8.10;;;;;;;12.85;45.50;100909.00;4977913;28;20042;-60
2022/11/20 09:15:56;;;;;;;27.25;8.90;;;;;;;12.88;45.78;100897.13;4977931;28;20077;-61
2022/11/20 09:18:22;;;;;;;25.40;8.45;;;;;;;12.91;46.57;100902.22;4962217;28;20121;-61
2022/11/20 09:20:48;;;;;;;23.75;9.55;;;;;;;12.87;45.77;100892.72;4978830;28;20058;-61
2022/11/20 09:23:14;;;;;;;21.92;9.40;;;;;;;12.95;45.71;100892.03;4977537;28;20041;-61
2022/11/20 09:25:39;;;;;;;17.45;8.32;;;;;;;12.98;45.30;100889.06;4978350;28;20043;-61
2022/11/20 09:28:04;;;;;;;22.77;9.65;;;;;;;13.00;46.15;100893.31;4977213;28;20077;-61
2022/11/20 09:30:30;;;;;;;23.10;8.10;;;;;;;12.99;46.02;100877.28;4979120;28;20058;-61
2022/11/20 09:32:56;;;;;;;19.20;8.95;;;;;;;13.02;45.93;100883.25;4963013;28;20449;-61
2022/11/20 09:35:21;;;;;;;24.55;9.38;;;;;;;13.03;45.78;100865.28;4980399;28;20035;-61
2022/11/20 09:37:47;;;;;;;25.30;9.63;;;;;;;13.10;46.10;100869.94;4979188;28;20377;-61
2022/11/20 09:40:21;;;;;;;25.00;9.25;;;;;;;13.13;45.75;100874.19;4962679;28;20038;-61
2022/11/20 09:43:01;;;;;;;24.23;9.43;;;;;;;13.15;46.36;100867.66;4979860;28;20031;-61
2022/11/20 09:45:44;;;;;;;22.95;8.93;;;;;;;13.15;46.63;100867.66;4971354;28;20485;-61
2022/11/20 09:48:15;;;;;;;25.33;9.02;;;;;;;13.12;46.37;100867.13;4975011;28;20046;-61
2022/11/20 09:50:51;;;;;;;24.55;9.40;;;;;;;13.10;46.09;100863.72;4979804;28;20030;-61
2022/11/20 09:53:33;;;;;;;20.67;8.43;;;;;;;13.11;46.68;100860.03;4978714;28;20034;-61
2022/11/20 09:56:01;;;;;;;20.98;9.02;;;;;;;13.12;46.27;100851.81;4979578;28;20045;-61
2022/11/20 09:58:37;;;;;;;27.27;9.85;;;;;;;13.15;46.19;100856.91;4981960;28;20042;-61
2022/11/20 10:01:17;;;;;;;26.70;10.30;;;;;;;13.19;46.19;100847.56;4997814;28;20494;-61
2022/11/20 10:04:19;;;;;;;23.58;8.95;;;;;;;13.24;45.37;100842.59;4997687;28;20030;-61
2022/11/20 10:07:07;;;;;;;28.52;9.57;;;;;;;13.26;45.80;100850.53;4997812;28;20053;-61
2022/11/20 10:09:36;;;;;;;26.90;8.95;;;;;;;13.28;45.85;100846.72;4979298;28;20031;-61
2022/11/20 10:12:09;;;;;;;29.10;10.38;;;;;;;13.29;45.75;100837.63;4978471;28;20023;-61
2022/11/20 10:14:47;;;;;;;27.25;12.05;;;;;;;13.34;45.78;100835.34;4979366;28;20165;-61
2022/11/20 10:17:33;;;;;;;26.33;11.02;;;;;;;13.37;45.61;100832.34;4980142;28;20091;-61
2022/11/20 10:20:25;;;;;;;28.50;11.15;;;;;;;13.39;45.58;100832.22;4978481;28;20042;-61
2022/11/20 10:23:01;;;;;;;22.85;9.00;;;;;;;13.41;45.34;100823.00;4977190;28;20035;-61
2022/11/20 10:25:37;;;;;;;24.10;9.45;;;;;;;13.43;45.48;100821.00;4978265;28;20509;-61
2022/11/20 10:28:11;;;;;;;25.15;8.73;;;;;;;13.45;45.84;100820.03;4977612;28;20053;-61
2022/11/20 10:30:44;;;;;;;24.30;10.02;;;;;;;13.48;45.86;100808.97;4977535;28;20035;-61
2022/11/20 10:33:23;;;;;;;23.90;9.73;;;;;;;13.53;46.39;100803.97;4996087;28;20588;-61
2022/11/20 10:35:50;;;;;;;25.40;10.13;;;;;;;13.55;45.51;100801.97;4996238;28;20023;-61
2022/11/20 10:38:23;;;;;;;25.92;9.63;;;;;;;13.62;45.34;100784.25;4996062;28;20054;-61
2022/11/20 10:41:24;;;;;;;29.05;9.23;;;;;;;13.71;46.63;100786.03;4997152;28;20045;-61
2022/11/20 10:43:40;;;;;;;20.25;8.65;;;;;;;13.76;46.56;100786.44;4996662;28;20073;-61
2022/11/20 10:46:14;;;;;;;21.80;8.02;;;;;;;13.74;45.43;100788.41;4996495;28;20113;-61
2022/11/20 10:48:43;;;;;;;32.10;10.13;;;;;;;13.73;45.94;100782.22;4995967;28;20125;-61
2022/11/20 10:51:20;;;;;;;26.13;9.73;;;;;;;13.74;45.62;100775.81;4996302;28;20101;-61
2022/11/20 10:54:04;;;;;;;25.88;10.02;;;;;;;13.76;45.81;100781.88;4996394;28;20026;-61
2022/11/20 10:56:53;;;;;;;21.92;8.60;;;;;;;13.78;46.56;100769.13;4999599;28;20120;-61
2022/11/20 10:59:38;;;;;;;22.40;9.73;;;;;;;13.79;47.17;100770.00;4982108;28;20037;-61
2022/11/20 11:02:21;;;;;;;21.17;9.82;;;;;;;13.79;47.07;100759.22;4998352;28;20377;-61
2022/11/20 11:04:50;;;;;;;19.58;8.95;;;;;;;13.80;46.46;100755.50;4997853;28;20061;-61
2022/11/20 11:07:30;;;;;;;24.48;10.75;;;;;;;13.83;47.11;100750.69;4997362;28;20042;-61
2022/11/20 11:09:56;;;;;;;28.38;10.00;;;;;;;13.83;45.94;100744.44;4997543;28;20495;-61
2022/11/20 11:12:24;;;;;;;29.08;9.75;;;;;;;13.83;46.88;100736.38;4980795;28;20172;-61
2022/11/20 11:14:55;;;;;;;23.15;9.55;;;;;;;13.85;47.13;100728.97;4997892;28;20018;-61
2022/11/20 11:17:26;;;;;;;33.53;10.63;;;;;;;13.82;45.83;100724.75;4981955;28;20065;-61
2022/11/20 11:19:59;;;;;;;27.80;11.10;;;;;;;13.83;46.48;100722.91;4998387;28;20035;-61
2022/11/20 11:22:24;;;;;;;29.75;10.60;;;;;;;13.81;47.01;100719.53;4998115;28;20041;-61
2022/11/20 11:24:53;;;;;;;25.27;9.95;;;;;;;13.83;45.97;100706.75;4980923;28;20042;-61
2022/11/20 11:27:18;;;;;;;28.35;9.20;;;;;;;13.83;46.54;100704.06;4981168;28;20039;-61
2022/11/20 11:29:44;;;;;;;33.70;10.63;;;;;;;13.88;47.45;100707.13;4996803;28;20049;-62